Time;durP1;ratioP1;P1;durP2;ratioP2;P2;SDS_P1;SDS_P2;PMS_P1;PMS_P2;Temp;Humidity;BMP_temperature;BMP_pressure;BME280_temperature;BME280_humidity;BME280_pressure;Samples;Min_cycle;Max_cycle;Signal;HPM_P1;HPM_P2
2020/12/19 00:01:28;;;;;;;17.90;3.20;;;;;;;;;;4876621;28;20274;-68
2020/12/19 00:03:54;;;;;;;18.40;4.63;;;;;;;;;;4873866;28;20222;-69
2020/12/19 00:06:19;;;;;;;20.60;3.72;;;;;;;;;;4882032;28;20425;-66
2020/12/19 00:08:45;;;;;;;15.85;2.95;;;;;;;;;;4873022;28;20196;-66
2020/12/19 00:11:10;;;;;;;10.50;2.85;;;;;;;;;;4875930;28;20735;-67
2020/12/19 00:13:37;;;;;;;17.55;3.10;;;;;;;;;;4875111;28;20181;-66
2020/12/19 00:16:03;;;;;;;13.73;3.28;;;;;;;;;;4872883;28;20171;-69
2020/12/19 00:18:28;;;;;;;11.50;2.85;;;;;;;;;;4873202;28;20199;-69
2020/12/19 00:20:54;;;;;;;18.20;3.22;;;;;;;;;;4879804;28;20330;-68
2020/12/19 00:23:19;;;;;;;9.80;2.80;;;;;;;;;;4874719;28;20214;-69
2020/12/19 00:25:44;;;;;;;12.75;2.65;;;;;;;;;;4881805;28;20657;-68
2020/12/19 00:28:10;;;;;;;21.40;3.25;;;;;;;;;;4876742;28;20179;-68
2020/12/19 00:30:37;;;;;;;20.58;3.17;;;;;;;;;;4877306;28;20532;-68
2020/12/19 00:33:02;;;;;;;13.50;3.15;;;;;;;;;;4876587;28;20190;-68
2020/12/19 00:35:28;;;;;;;13.85;3.10;;;;;;;;;;4876107;28;20614;-69
2020/12/19 00:37:53;;;;;;;15.10;3.45;;;;;;;;;;4884135;28;20619;-69
2020/12/19 00:40:19;;;;;;;18.73;3.40;;;;;;;;;;4877417;28;20821;-69
2020/12/19 00:42:44;;;;;;;10.82;2.72;;;;;;;;;;4873285;28;20539;-69
2020/12/19 00:45:10;;;;;;;12.65;3.03;;;;;;;;;;4878658;28;20279;-69
2020/12/19 00:47:36;;;;;;;15.55;3.42;;;;;;;;;;4876427;28;20278;-69
2020/12/19 00:50:03;;;;;;;12.50;2.58;;;;;;;;;;4878147;28;20156;-68
2020/12/19 00:52:29;;;;;;;17.42;3.33;;;;;;;;;;4875098;28;20230;-68
2020/12/19 00:54:56;;;;;;;11.02;4.20;;;;;;;;;;4876050;28;20279;-68
2020/12/19 00:57:21;;;;;;;15.50;2.40;;;;;;;;;;4907504;28;20277;-70
2020/12/19 00:59:47;;;;;;;16.65;3.45;;;;;;;;;;4884374;28;20183;-69
2020/12/19 01:02:12;;;;;;;15.40;3.00;;;;;;;;;;4877848;28;20214;-69
2020/12/19 01:04:38;;;;;;;9.27;3.08;;;;;;;;;;4907684;28;20242;-69
2020/12/19 01:07:03;;;;;;;11.57;3.10;;;;;;;;;;4875401;28;20136;-66
2020/12/19 01:09:30;;;;;;;8.88;2.58;;;;;;;;;;4889067;28;20234;-66
2020/12/19 01:11:56;;;;;;;13.80;3.25;;;;;;;;;;4874824;28;20570;-67
2020/12/19 01:14:21;;;;;;;12.27;2.95;;;;;;;;;;4874724;28;20152;-67
2020/12/19 01:16:47;;;;;;;12.60;3.10;;;;;;;;;;4881178;28;20186;-67
2020/12/19 01:19:13;;;;;;;15.02;3.17;;;;;;;;;;4907923;28;20230;-67
2020/12/19 01:21:38;;;;;;;11.00;2.53;;;;;;;;;;4875559;28;20262;-66
2020/12/19 01:24:04;;;;;;;20.23;3.75;;;;;;;;;;4875401;28;20760;-66
2020/12/19 01:26:29;;;;;;;13.90;2.63;;;;;;;;;;4907107;28;20191;-67
2020/12/19 01:28:55;;;;;;;10.35;2.67;;;;;;;;;;4875396;28;20261;-66
2020/12/19 01:31:21;;;;;;;13.35;2.67;;;;;;;;;;4877808;28;20527;-67
2020/12/19 01:33:47;;;;;;;17.40;2.90;;;;;;;;;;4875961;28;20592;-66
2020/12/19 01:36:17;;;;;;;13.77;2.80;;;;;;;;;;4875804;28;20281;-66
2020/12/19 01:38:43;;;;;;;16.92;3.30;;;;;;;;;;4874457;28;20541;-67
2020/12/19 01:41:09;;;;;;;12.98;2.80;;;;;;;;;;4882392;28;20178;-66
2020/12/19 01:43:42;;;;;;;13.50;2.90;;;;;;;;;;4894858;28;20202;-66
2020/12/19 01:46:07;;;;;;;15.45;3.47;;;;;;;;;;4890025;28;20389;-67
2020/12/19 01:48:33;;;;;;;18.95;3.70;;;;;;;;;;4894659;28;20262;-66
2020/12/19 01:50:58;;;;;;;10.27;3.58;;;;;;;;;;4901414;28;20143;-67
2020/12/19 01:53:24;;;;;;;12.63;3.20;;;;;;;;;;4902140;28;20191;-68
2020/12/19 01:55:52;;;;;;;15.25;3.53;;;;;;;;;;4895133;28;20229;-66
2020/12/19 01:58:17;;;;;;;15.85;3.47;;;;;;;;;;4887472;28;20234;-67
2020/12/19 02:00:42;;;;;;;19.77;3.22;;;;;;;;;;4875111;28;20567;-67
2020/12/19 02:03:09;;;;;;;22.42;3.42;;;;;;;;;;4874502;28;20152;-66
2020/12/19 02:05:41;;;;;;;15.90;3.28;;;;;;;;;;4873681;28;20191;-67
2020/12/19 02:08:07;;;;;;;19.80;4.20;;;;;;;;;;4874751;28;20199;-67
2020/12/19 02:10:33;;;;;;;15.18;3.40;;;;;;;;;;4873943;28;20582;-67
2020/12/19 02:13:04;;;;;;;13.95;3.03;;;;;;;;;;4873978;28;20215;-67
2020/12/19 02:15:42;;;;;;;14.82;2.95;;;;;;;;;;4865720;28;20385;-67
2020/12/19 02:18:07;;;;;;;12.75;2.83;;;;;;;;;;4872885;28;20286;-66
2020/12/19 02:20:33;;;;;;;14.75;3.35;;;;;;;;;;4873631;28;20609;-69
2020/12/19 02:23:02;;;;;;;8.02;2.67;;;;;;;;;;4873955;28;20195;-69
2020/12/19 02:25:35;;;;;;;11.70;2.70;;;;;;;;;;4892918;28;20347;-69
2020/12/19 02:28:02;;;;;;;9.25;2.65;;;;;;;;;;4881318;28;20157;-69
2020/12/19 02:30:28;;;;;;;9.07;2.70;;;;;;;;;;4906066;28;20179;-67
2020/12/19 02:32:55;;;;;;;11.75;2.47;;;;;;;;;;4873282;28;20515;-66
2020/12/19 02:35:20;;;;;;;11.75;2.75;;;;;;;;;;4872751;28;20191;-66
2020/12/19 02:37:46;;;;;;;10.73;2.97;;;;;;;;;;4877458;28;20198;-67
2020/12/19 02:40:12;;;;;;;18.30;3.33;;;;;;;;;;4874483;28;20197;-67
2020/12/19 02:42:38;;;;;;;6.75;1.88;;;;;;;;;;4877017;28;20159;-67
2020/12/19 02:45:03;;;;;;;8.55;2.00;;;;;;;;;;4875829;28;20237;-66
2020/12/19 02:47:28;;;;;;;8.30;2.25;;;;;;;;;;4874643;28;20573;-67
2020/12/19 02:49:54;;;;;;;4.78;2.30;;;;;;;;;;4880825;28;20152;-66
2020/12/19 02:52:20;;;;;;;6.55;2.15;;;;;;;;;;4890402;28;20257;-67
2020/12/19 02:54:46;;;;;;;13.70;3.22;;;;;;;;;;4858367;28;20205;-67
2020/12/19 02:57:11;;;;;;;13.48;3.03;;;;;;;;;;4873519;28;20199;-66
2020/12/19 02:59:37;;;;;;;16.73;2.60;;;;;;;;;;4913458;28;20156;-66
2020/12/19 03:02:02;;;;;;;15.20;3.08;;;;;;;;;;4895218;28;20155;-66
2020/12/19 03:04:28;;;;;;;16.65;2.47;;;;;;;;;;4890403;28;20244;-67
2020/12/19 03:06:54;;;;;;;13.05;2.38;;;;;;;;;;4873814;28;20237;-66
2020/12/19 03:09:20;;;;;;;13.85;1.92;;;;;;;;;;4874015;28;20282;-68
2020/12/19 03:11:46;;;;;;;14.35;1.63;;;;;;;;;;4881022;28;20162;-68
2020/12/19 03:14:13;;;;;;;10.50;1.88;;;;;;;;;;4882385;28;20280;-68
2020/12/19 03:16:39;;;;;;;13.90;2.40;;;;;;;;;;4878369;28;20322;-68
2020/12/19 03:19:04;;;;;;;6.22;1.55;;;;;;;;;;4873313;28;20145;-68
2020/12/19 03:21:30;;;;;;;11.65;2.03;;;;;;;;;;4873612;28;20289;-68
2020/12/19 03:23:55;;;;;;;12.25;1.73;;;;;;;;;;4872934;28;20183;-68
2020/12/19 03:26:20;;;;;;;13.90;1.73;;;;;;;;;;4874108;28;20284;-68
2020/12/19 03:28:47;;;;;;;6.95;1.63;;;;;;;;;;4872669;28;20595;-69
2020/12/19 03:31:12;;;;;;;8.35;1.52;;;;;;;;;;4873259;28;20275;-68
2020/12/19 03:33:38;;;;;;;13.43;1.60;;;;;;;;;;4874345;28;20247;-69
2020/12/19 03:36:03;;;;;;;8.32;1.80;;;;;;;;;;4902080;28;20434;-68
2020/12/19 03:38:30;;;;;;;11.82;1.75;;;;;;;;;;4854598;28;20297;-69
2020/12/19 03:40:55;;;;;;;15.30;1.88;;;;;;;;;;4876422;28;20740;-69
2020/12/19 03:43:20;;;;;;;15.80;2.25;;;;;;;;;;4893604;28;20519;-68
2020/12/19 03:45:46;;;;;;;14.85;2.42;;;;;;;;;;4877632;28;20192;-68
2020/12/19 03:48:11;;;;;;;14.38;2.53;;;;;;;;;;4874285;28;20275;-68
2020/12/19 03:50:37;;;;;;;18.42;2.75;;;;;;;;;;4872426;28;20203;-69
2020/12/19 03:53:03;;;;;;;14.38;2.53;;;;;;;;;;4873113;28;20334;-69
2020/12/19 03:55:28;;;;;;;11.68;2.35;;;;;;;;;;4880240;28;20635;-68
2020/12/19 03:57:54;;;;;;;10.73;2.20;;;;;;;;;;4871978;28;20217;-69
2020/12/19 04:00:19;;;;;;;13.93;2.40;;;;;;;;;;4881959;28;20186;-68
2020/12/19 04:02:45;;;;;;;16.90;2.65;;;;;;;;;;4876570;28;20279;-68
2020/12/19 04:05:11;;;;;;;23.23;3.33;;;;;;;;;;4876558;28;20199;-68
2020/12/19 04:07:39;;;;;;;11.18;2.45;;;;;;;;;;4876462;28;20171;-68
2020/12/19 04:10:05;;;;;;;13.32;2.67;;;;;;;;;;4878688;28;20179;-69
2020/12/19 04:12:31;;;;;;;12.18;2.50;;;;;;;;;;4900390;28;20679;-68
2020/12/19 04:14:57;;;;;;;19.02;2.35;;;;;;;;;;4897369;28;20579;-73
2020/12/19 04:17:24;;;;;;;15.70;2.42;;;;;;;;;;4897873;28;20247;-68
2020/12/19 04:19:51;;;;;;;8.48;2.10;;;;;;;;;;4895491;28;20238;-68
2020/12/19 04:22:16;;;;;;;17.75;2.40;;;;;;;;;;4876475;28;20505;-68
2020/12/19 04:24:42;;;;;;;13.23;2.08;;;;;;;;;;4877261;28;20288;-69
2020/12/19 04:27:08;;;;;;;15.35;2.35;;;;;;;;;;4877582;28;20290;-68
2020/12/19 04:29:33;;;;;;;15.07;2.35;;;;;;;;;;4885678;28;20285;-68
2020/12/19 04:31:59;;;;;;;7.32;1.90;;;;;;;;;;4876318;28;20199;-68
2020/12/19 04:34:25;;;;;;;9.10;1.42;;;;;;;;;;4874802;28;20191;-68
2020/12/19 04:36:51;;;;;;;18.85;2.20;;;;;;;;;;4876391;28;20190;-68
2020/12/19 04:39:16;;;;;;;17.35;1.83;;;;;;;;;;4876034;28;20515;-68
2020/12/19 04:41:42;;;;;;;12.40;1.85;;;;;;;;;;4920503;28;20238;-68
2020/12/19 04:44:08;;;;;;;8.70;1.88;;;;;;;;;;4883931;28;20195;-68
2020/12/19 04:46:37;;;;;;;10.70;1.60;;;;;;;;;;4883915;28;20172;-73
2020/12/19 04:49:02;;;;;;;14.75;1.50;;;;;;;;;;4899277;28;20241;-68
2020/12/19 04:51:28;;;;;;;12.27;1.80;;;;;;;;;;4863402;28;20355;-68
2020/12/19 04:53:55;;;;;;;14.85;1.67;;;;;;;;;;4874793;28;20342;-68
2020/12/19 04:56:22;;;;;;;8.77;1.45;;;;;;;;;;4877671;28;20222;-68
2020/12/19 04:58:51;;;;;;;12.90;1.70;;;;;;;;;;4883093;28;20179;-68
2020/12/19 05:01:17;;;;;;;13.85;2.08;;;;;;;;;;4882775;28;20163;-68
2020/12/19 05:03:45;;;;;;;19.23;1.92;;;;;;;;;;4875773;28;20191;-66
2020/12/19 05:06:10;;;;;;;19.90;2.17;;;;;;;;;;4883270;28;20156;-67
2020/12/19 05:08:36;;;;;;;8.55;1.83;;;;;;;;;;4874994;28;20538;-66
2020/12/19 05:11:02;;;;;;;11.27;1.67;;;;;;;;;;4876685;28;20202;-66
2020/12/19 05:13:27;;;;;;;14.57;1.90;;;;;;;;;;4873968;28;20668;-66
2020/12/19 05:15:53;;;;;;;22.38;2.15;;;;;;;;;;4876138;28;20170;-66
2020/12/19 05:18:19;;;;;;;18.88;1.75;;;;;;;;;;4875498;28;20560;-66
2020/12/19 05:20:45;;;;;;;18.65;1.90;;;;;;;;;;4875265;28;20145;-66
2020/12/19 05:23:13;;;;;;;13.52;2.10;;;;;;;;;;4875518;28;20547;-66
2020/12/19 05:25:39;;;;;;;29.05;2.20;;;;;;;;;;4877338;28;20200;-66
2020/12/19 05:28:04;;;;;;;20.02;1.73;;;;;;;;;;4875054;28;20188;-66
2020/12/19 05:30:29;;;;;;;25.30;3.25;;;;;;;;;;4875260;28;20484;-66
2020/12/19 05:32:55;;;;;;;17.00;2.15;;;;;;;;;;4875047;28;20292;-66
2020/12/19 05:35:21;;;;;;;15.65;3.08;;;;;;;;;;4874902;28;20198;-66
2020/12/19 05:37:59;;;;;;;23.05;2.20;;;;;;;;;;4874771;28;20190;-67
2020/12/19 05:40:26;;;;;;;26.90;4.05;;;;;;;;;;4876176;28;20203;-66
2020/12/19 05:42:51;;;;;;;15.07;1.90;;;;;;;;;;4875213;28;20265;-66
2020/12/19 05:45:18;;;;;;;25.67;2.63;;;;;;;;;;4875318;28;20230;-66
2020/12/19 05:47:44;;;;;;;21.58;2.38;;;;;;;;;;4874807;28;20265;-66
2020/12/19 05:50:09;;;;;;;29.45;2.42;;;;;;;;;;4874941;28;20520;-66
2020/12/19 05:52:39;;;;;;;21.35;2.25;;;;;;;;;;4875189;28;20567;-66
2020/12/19 05:55:09;;;;;;;20.30;2.40;;;;;;;;;;4875430;28;20247;-66
2020/12/19 05:57:35;;;;;;;23.88;4.07;;;;;;;;;;4894125;28;20170;-66
2020/12/19 06:00:04;;;;;;;25.08;2.30;;;;;;;;;;4873428;28;20625;-66
2020/12/19 06:02:30;;;;;;;26.52;3.40;;;;;;;;;;4874945;28;20251;-66
2020/12/19 06:04:59;;;;;;;21.23;2.53;;;;;;;;;;4874405;28;20289;-66
2020/12/19 06:07:26;;;;;;;24.30;2.55;;;;;;;;;;4883884;28;20679;-66
2020/12/19 06:09:51;;;;;;;30.80;2.20;;;;;;;;;;4907330;28;20207;-66
2020/12/19 06:12:24;;;;;;;28.35;2.65;;;;;;;;;;4882702;28;20186;-66
2020/12/19 06:14:52;;;;;;;25.05;2.97;;;;;;;;;;4874526;28;20178;-66
2020/12/19 06:17:23;;;;;;;19.75;2.67;;;;;;;;;;4893032;28;20278;-66
2020/12/19 06:19:49;;;;;;;24.08;2.40;;;;;;;;;;4862177;28;20287;-66
2020/12/19 06:22:14;;;;;;;19.10;1.90;;;;;;;;;;4872668;28;20262;-66
2020/12/19 06:24:47;;;;;;;22.45;2.33;;;;;;;;;;4873745;28;20257;-66
2020/12/19 06:27:21;;;;;;;23.40;1.83;;;;;;;;;;4875183;28;20300;-66
2020/12/19 06:29:47;;;;;;;22.40;2.17;;;;;;;;;;4881111;28;20227;-66
2020/12/19 06:32:19;;;;;;;23.13;2.28;;;;;;;;;;4876687;28;20288;-66
2020/12/19 06:34:56;;;;;;;12.90;2.17;;;;;;;;;;4873397;28;20140;-66
2020/12/19 06:37:24;;;;;;;24.58;2.50;;;;;;;;;;4875398;28;20627;-66
2020/12/19 06:40:08;;;;;;;22.45;4.00;;;;;;;;;;4875077;28;20592;-66
2020/12/19 06:42:34;;;;;;;23.80;2.28;;;;;;;;;;4874882;28;20211;-66
2020/12/19 06:45:20;;;;;;;26.75;2.92;;;;;;;;;;4876842;28;20218;-66
2020/12/19 06:47:46;;;;;;;21.58;2.55;;;;;;;;;;4873152;28;20137;-66
2020/12/19 06:50:11;;;;;;;26.48;2.33;;;;;;;;;;4873670;28;20286;-66
2020/12/19 06:52:37;;;;;;;35.45;2.67;;;;;;;;;;4882232;28;20235;-66
2020/12/19 06:55:20;;;;;;;30.63;2.67;;;;;;;;;;4902296;28;20261;-70
2020/12/19 06:57:55;;;;;;;32.05;2.58;;;;;;;;;;4874812;28;20229;-66
2020/12/19 07:00:21;;;;;;;25.63;2.58;;;;;;;;;;4880581;28;20210;-66
2020/12/19 07:02:51;;;;;;;31.30;3.15;;;;;;;;;;4877289;28;20156;-68
2020/12/19 07:05:21;;;;;;;23.33;2.30;;;;;;;;;;4874137;28;20226;-68
2020/12/19 07:07:47;;;;;;;39.75;3.30;;;;;;;;;;4905943;28;20168;-68
2020/12/19 07:10:12;;;;;;;29.95;3.03;;;;;;;;;;4872755;28;20250;-68
2020/12/19 07:12:38;;;;;;;28.55;2.40;;;;;;;;;;4880451;28;20273;-68
2020/12/19 07:15:24;;;;;;;32.33;3.42;;;;;;;;;;4891070;28;20262;-68
2020/12/19 07:17:50;;;;;;;28.27;3.45;;;;;;;;;;4860984;28;20195;-68
2020/12/19 07:20:21;;;;;;;23.33;2.20;;;;;;;;;;4908725;28;20157;-68
2020/12/19 07:22:47;;;;;;;33.05;2.47;;;;;;;;;;4879936;28;20207;-68
2020/12/19 07:25:13;;;;;;;38.40;2.72;;;;;;;;;;4873270;28;20249;-68
2020/12/19 07:27:38;;;;;;;21.02;2.55;;;;;;;;;;4884408;28;20273;-68
2020/12/19 07:30:04;;;;;;;20.30;2.22;;;;;;;;;;4887555;28;20190;-68
2020/12/19 07:32:29;;;;;;;25.27;5.15;;;;;;;;;;4886578;28;20208;-68
2020/12/19 07:34:55;;;;;;;22.85;4.20;;;;;;;;;;4887486;28;20266;-68
2020/12/19 07:37:21;;;;;;;22.23;3.35;;;;;;;;;;4884206;28;20195;-68
2020/12/19 07:39:47;;;;;;;30.50;3.65;;;;;;;;;;4876928;28;20256;-68
2020/12/19 07:42:13;;;;;;;28.92;4.47;;;;;;;;;;4896987;28;20199;-68
2020/12/19 07:44:38;;;;;;;37.38;6.80;;;;;;;;;;4886335;28;20187;-68
2020/12/19 07:47:13;;;;;;;17.05;2.00;;;;;;;;;;4887985;28;20246;-68
2020/12/19 07:49:43;;;;;;;16.92;1.98;;;;;;;;;;4882566;28;20303;-68
2020/12/19 07:52:11;;;;;;;17.38;4.07;;;;;;;;;;4885019;28;20324;-68
2020/12/19 07:54:38;;;;;;;22.60;2.75;;;;;;;;;;4888014;28;20171;-68
2020/12/19 07:57:04;;;;;;;18.60;2.05;;;;;;;;;;4889740;28;20227;-68
2020/12/19 07:59:29;;;;;;;15.32;2.55;;;;;;;;;;4898293;28;20249;-68
2020/12/19 08:01:55;;;;;;;14.85;2.15;;;;;;;;;;4878929;28;20281;-68
2020/12/19 08:04:21;;;;;;;17.08;3.17;;;;;;;;;;4911227;28;20513;-68
2020/12/19 08:06:47;;;;;;;15.30;2.78;;;;;;;;;;4886829;28;20178;-68
2020/12/19 08:09:22;;;;;;;30.60;5.53;;;;;;;;;;4888394;28;20201;-68
2020/12/19 08:11:49;;;;;;;14.98;1.85;;;;;;;;;;4883708;28;20208;-68
2020/12/19 08:14:18;;;;;;;11.95;2.22;;;;;;;;;;4887011;28;20286;-68
2020/12/19 08:16:44;;;;;;;19.23;2.10;;;;;;;;;;4875823;28;20872;-68
2020/12/19 08:19:11;;;;;;;14.00;1.52;;;;;;;;;;4880983;28;20241;-68
2020/12/19 08:21:39;;;;;;;13.80;1.65;;;;;;;;;;4886906;28;20235;-68
2020/12/19 08:24:07;;;;;;;16.77;1.45;;;;;;;;;;4880343;28;20266;-68
2020/12/19 08:26:33;;;;;;;14.43;1.75;;;;;;;;;;4877717;28;20265;-68
2020/12/19 08:29:03;;;;;;;16.75;1.70;;;;;;;;;;4873779;28;20298;-66
2020/12/19 08:31:29;;;;;;;13.13;1.80;;;;;;;;;;4876761;28;20433;-66
2020/12/19 08:33:55;;;;;;;14.35;1.48;;;;;;;;;;4885533;28;20190;-68
2020/12/19 08:36:22;;;;;;;18.70;2.20;;;;;;;;;;4879848;28;20191;-68
2020/12/19 08:38:48;;;;;;;17.30;1.83;;;;;;;;;;4882902;28;20655;-68
2020/12/19 08:41:18;;;;;;;19.75;1.65;;;;;;;;;;4884444;28;20155;-68
2020/12/19 08:43:43;;;;;;;19.67;2.28;;;;;;;;;;4886684;28;20186;-68
2020/12/19 08:46:10;;;;;;;15.05;1.75;;;;;;;;;;4881203;28;20523;-68
2020/12/19 08:48:36;;;;;;;12.57;1.60;;;;;;;;;;4880958;28;20175;-66
2020/12/19 08:51:06;;;;;;;13.30;1.60;;;;;;;;;;4883509;28;20205;-66
2020/12/19 08:53:32;;;;;;;9.57;1.35;;;;;;;;;;4896217;28;20183;-66
2020/12/19 08:56:13;;;;;;;21.08;2.92;;;;;;;;;;4885652;28;20535;-66
2020/12/19 08:58:38;;;;;;;15.43;2.80;;;;;;;;;;4883354;28;20505;-67
2020/12/19 09:01:14;;;;;;;22.55;2.78;;;;;;;;;;4898023;28;20129;-67
2020/12/19 09:03:40;;;;;;;11.65;1.85;;;;;;;;;;4880575;28;20211;-67
2020/12/19 09:06:08;;;;;;;10.70;1.77;;;;;;;;;;4880345;28;20189;-68
2020/12/19 09:08:35;;;;;;;14.00;1.63;;;;;;;;;;4894714;28;20285;-67
2020/12/19 09:11:01;;;;;;;10.60;1.45;;;;;;;;;;4875645;28;20504;-67
2020/12/19 09:13:28;;;;;;;11.48;1.67;;;;;;;;;;4892454;28;20329;-67
2020/12/19 09:15:57;;;;;;;11.25;1.42;;;;;;;;;;4874172;28;20639;-67
2020/12/19 09:18:23;;;;;;;14.82;1.98;;;;;;;;;;4875379;28;20179;-67
2020/12/19 09:20:51;;;;;;;24.90;2.65;;;;;;;;;;4883978;28;20171;-69
2020/12/19 09:23:16;;;;;;;16.80;2.10;;;;;;;;;;4881589;28;20523;-66
2020/12/19 09:25:42;;;;;;;14.35;2.40;;;;;;;;;;4879174;28;20160;-66
2020/12/19 09:28:07;;;;;;;17.35;2.40;;;;;;;;;;4883626;28;20633;-67
2020/12/19 09:30:33;;;;;;;14.27;2.50;;;;;;;;;;4876943;28;20206;-66
2020/12/19 09:32:58;;;;;;;15.68;2.65;;;;;;;;;;4876004;28;20618;-67
2020/12/19 09:35:28;;;;;;;18.13;2.58;;;;;;;;;;4874062;28;20179;-66
2020/12/19 09:37:55;;;;;;;20.13;3.10;;;;;;;;;;4873862;28;20249;-66
2020/12/19 09:40:21;;;;;;;24.17;3.47;;;;;;;;;;4874432;28;20563;-66
2020/12/19 09:42:47;;;;;;;15.38;3.80;;;;;;;;;;4900336;28;20292;-67
2020/12/19 09:45:13;;;;;;;24.42;2.50;;;;;;;;;;4872356;28;20179;-66
2020/12/19 09:47:41;;;;;;;20.80;2.50;;;;;;;;;;4880940;28;20527;-66
2020/12/19 09:50:07;;;;;;;15.32;2.28;;;;;;;;;;4873559;28;20288;-66
2020/12/19 09:52:33;;;;;;;20.80;2.42;;;;;;;;;;4875585;28;20206;-66
2020/12/19 09:54:58;;;;;;;29.85;5.32;;;;;;;;;;4872469;28;20544;-67
2020/12/19 09:57:24;;;;;;;20.02;3.08;;;;;;;;;;4874667;28;20277;-66
2020/12/19 09:59:49;;;;;;;25.30;6.00;;;;;;;;;;4880154;28;20210;-66
2020/12/19 10:02:14;;;;;;;23.65;5.72;;;;;;;;;;4874336;28;20601;-66
2020/12/19 10:04:40;;;;;;;36.33;11.63;;;;;;;;;;4873624;28;20374;-66
2020/12/19 10:07:05;;;;;;;25.33;3.47;;;;;;;;;;4879981;28;20199;-66
2020/12/19 10:09:34;;;;;;;17.70;2.45;;;;;;;;;;4873204;28;20195;-67
2020/12/19 10:12:00;;;;;;;23.10;4.15;;;;;;;;;;4872635;28;20552;-66
2020/12/19 10:14:25;;;;;;;29.55;3.80;;;;;;;;;;4873350;28;20179;-66
2020/12/19 10:16:51;;;;;;;26.48;5.22;;;;;;;;;;4872666;28;20553;-66
2020/12/19 10:19:16;;;;;;;25.00;5.72;;;;;;;;;;4872275;28;20235;-66
2020/12/19 10:21:42;;;;;;;29.45;4.95;;;;;;;;;;4872977;28;20202;-66
2020/12/19 10:24:08;;;;;;;26.42;4.75;;;;;;;;;;4874094;28;20511;-66
2020/12/19 10:26:36;;;;;;;30.38;4.97;;;;;;;;;;4872850;28;20583;-66
2020/12/19 10:29:05;;;;;;;30.63;5.78;;;;;;;;;;4872801;28;20267;-66
2020/12/19 10:31:31;;;;;;;22.30;5.53;;;;;;;;;;4877930;28;20601;-66
2020/12/19 10:33:57;;;;;;;23.17;3.33;;;;;;;;;;4874202;28;20374;-66
2020/12/19 10:36:23;;;;;;;26.90;4.53;;;;;;;;;;4871727;28;20562;-66
2020/12/19 10:38:49;;;;;;;19.63;3.13;;;;;;;;;;4878521;28;20190;-66
2020/12/19 10:41:14;;;;;;;24.65;3.75;;;;;;;;;;4900659;28;20317;-66
2020/12/19 10:43:40;;;;;;;19.98;3.97;;;;;;;;;;4873610;28;20520;-66
2020/12/19 10:46:06;;;;;;;15.57;2.20;;;;;;;;;;4876636;28;20483;-66
2020/12/19 10:48:32;;;;;;;21.63;2.63;;;;;;;;;;4871254;28;20183;-66
2020/12/19 10:50:57;;;;;;;19.65;2.85;;;;;;;;;;4881904;28;20182;-66
2020/12/19 10:53:29;;;;;;;15.57;2.58;;;;;;;;;;4871761;28;20266;-67
2020/12/19 10:55:54;;;;;;;15.15;2.00;;;;;;;;;;4872917;28;20183;-66
2020/12/19 10:58:20;;;;;;;12.68;3.10;;;;;;;;;;4873088;28;20206;-66
2020/12/19 11:00:45;;;;;;;15.68;2.72;;;;;;;;;;4872205;28;20569;-66
2020/12/19 11:03:11;;;;;;;17.10;3.05;;;;;;;;;;4905310;28;20283;-66
2020/12/19 11:05:39;;;;;;;23.67;4.25;;;;;;;;;;4879540;28;20519;-66
2020/12/19 11:08:05;;;;;;;14.40;2.20;;;;;;;;;;4872312;28;20269;-66
2020/12/19 11:10:30;;;;;;;15.68;2.42;;;;;;;;;;4871749;28;20317;-66
2020/12/19 11:12:56;;;;;;;20.92;2.28;;;;;;;;;;4872416;28;20263;-66
2020/12/19 11:15:21;;;;;;;9.48;1.73;;;;;;;;;;4872687;28;20468;-66
2020/12/19 11:17:49;;;;;;;14.10;1.88;;;;;;;;;;4874123;28;20498;-68
2020/12/19 11:20:14;;;;;;;15.73;2.20;;;;;;;;;;4875338;28;20167;-66
2020/12/19 11:22:40;;;;;;;19.08;2.10;;;;;;;;;;4881537;28;20194;-66
2020/12/19 11:25:05;;;;;;;14.23;2.42;;;;;;;;;;4882931;28;20286;-66
2020/12/19 11:27:31;;;;;;;20.08;2.78;;;;;;;;;;4880548;28;20362;-66
2020/12/19 11:29:56;;;;;;;10.15;1.65;;;;;;;;;;4881674;28;20204;-66
2020/12/19 11:32:23;;;;;;;11.48;2.13;;;;;;;;;;4880843;28;20333;-66
2020/12/19 11:34:48;;;;;;;13.15;2.05;;;;;;;;;;4880433;28;20198;-66
2020/12/19 11:37:19;;;;;;;15.60;2.55;;;;;;;;;;4874862;28;20171;-65
2020/12/19 11:39:44;;;;;;;14.20;1.90;;;;;;;;;;4871602;28;20317;-66
2020/12/19 11:42:10;;;;;;;23.40;3.28;;;;;;;;;;4894711;28;20354;-66
2020/12/19 11:44:35;;;;;;;13.02;2.50;;;;;;;;;;4891212;28;20661;-65
2020/12/19 11:47:01;;;;;;;18.70;2.00;;;;;;;;;;4890987;28;20175;-66
2020/12/19 11:49:26;;;;;;;11.82;2.17;;;;;;;;;;4892983;28;20332;-65
2020/12/19 11:51:52;;;;;;;18.33;2.50;;;;;;;;;;4898962;28;20252;-66
2020/12/19 11:54:18;;;;;;;15.15;2.38;;;;;;;;;;4882188;28;20210;-65
2020/12/19 11:56:43;;;;;;;13.02;1.88;;;;;;;;;;4871105;28;20171;-65
2020/12/19 11:59:11;;;;;;;9.70;2.03;;;;;;;;;;4871471;28;20142;-66
2020/12/19 12:01:37;;;;;;;7.50;1.80;;;;;;;;;;4877172;28;20191;-66
2020/12/19 12:04:05;;;;;;;24.55;4.25;;;;;;;;;;4885649;28;20192;-65
2020/12/19 12:06:32;;;;;;;19.17;3.08;;;;;;;;;;4873102;28;20195;-66
2020/12/19 12:08:59;;;;;;;14.73;2.33;;;;;;;;;;4888472;28;20335;-66
2020/12/19 12:11:25;;;;;;;15.07;2.45;;;;;;;;;;4870298;28;20273;-66
2020/12/19 12:13:52;;;;;;;19.75;3.85;;;;;;;;;;4871514;28;20194;-65
2020/12/19 12:16:18;;;;;;;14.93;1.85;;;;;;;;;;4899360;28;20541;-66
2020/12/19 12:18:43;;;;;;;15.68;2.00;;;;;;;;;;4872011;28;20224;-66
2020/12/19 12:21:12;;;;;;;15.43;2.45;;;;;;;;;;4871564;28;20596;-66
2020/12/19 12:23:38;;;;;;;11.52;2.67;;;;;;;;;;4874928;28;20253;-65
2020/12/19 12:26:03;;;;;;;16.45;2.15;;;;;;;;;;4883261;28;20198;-67
2020/12/19 12:28:29;;;;;;;12.13;2.25;;;;;;;;;;4875598;28;20577;-66
2020/12/19 12:30:57;;;;;;;13.38;2.33;;;;;;;;;;4875398;28;20686;-66
2020/12/19 12:33:22;;;;;;;22.33;2.40;;;;;;;;;;4883647;28;20305;-66
2020/12/19 12:35:48;;;;;;;19.63;1.77;;;;;;;;;;4892818;28;20572;-66
2020/12/19 12:38:13;;;;;;;20.13;2.53;;;;;;;;;;4904469;28;20206;-66
2020/12/19 12:40:39;;;;;;;18.02;3.05;;;;;;;;;;4882063;28;20167;-66
2020/12/19 12:43:04;;;;;;;13.45;2.25;;;;;;;;;;4881597;28;20337;-66
2020/12/19 12:45:30;;;;;;;17.35;2.25;;;;;;;;;;4874270;28;20238;-67
2020/12/19 12:47:55;;;;;;;16.25;2.65;;;;;;;;;;4874188;28;20525;-66
2020/12/19 12:50:21;;;;;;;23.70;2.92;;;;;;;;;;4876106;28;20195;-66
2020/12/19 12:52:46;;;;;;;16.38;2.13;;;;;;;;;;4888618;28;20175;-66
2020/12/19 12:55:12;;;;;;;19.20;2.70;;;;;;;;;;4856177;28;20148;-66
2020/12/19 12:57:37;;;;;;;18.55;2.50;;;;;;;;;;4869098;28;20523;-66
2020/12/19 13:00:04;;;;;;;19.10;2.97;;;;;;;;;;4888341;28;20225;-66
2020/12/19 13:02:29;;;;;;;17.05;3.05;;;;;;;;;;4893872;28;20194;-66
2020/12/19 13:04:55;;;;;;;13.43;2.58;;;;;;;;;;4894177;28;20151;-66
2020/12/19 13:07:20;;;;;;;19.55;2.70;;;;;;;;;;4893646;28;20198;-66
2020/12/19 13:09:46;;;;;;;24.95;3.05;;;;;;;;;;4882374;28;20211;-66
2020/12/19 13:12:12;;;;;;;20.70;3.33;;;;;;;;;;4882118;28;20187;-66
2020/12/19 13:14:37;;;;;;;16.55;2.70;;;;;;;;;;4874518;28;20145;-66
2020/12/19 13:17:04;;;;;;;13.30;2.42;;;;;;;;;;4874058;28;20236;-66
2020/12/19 13:19:29;;;;;;;18.38;2.95;;;;;;;;;;4874491;28;20669;-66
2020/12/19 13:21:55;;;;;;;19.48;3.42;;;;;;;;;;4900088;28;20192;-65
2020/12/19 13:24:20;;;;;;;20.98;2.55;;;;;;;;;;4869339;28;20184;-65
2020/12/19 13:26:49;;;;;;;21.40;2.95;;;;;;;;;;4880276;28;20187;-65
2020/12/19 13:29:15;;;;;;;23.17;3.88;;;;;;;;;;4874195;28;20199;-65
2020/12/19 13:31:50;;;;;;;26.70;3.45;;;;;;;;;;4873722;28;20592;-65
2020/12/19 13:34:16;;;;;;;;;;;;;;;;;;4873853;28;20331;-65
2020/12/19 13:36:44;;;;;;;19.58;3.15;;;;;;;;;;4873598;28;20221;-66
2020/12/19 13:39:10;;;;;;;32.13;3.78;;;;;;;;;;4873745;28;20376;-65
2020/12/19 13:41:36;;;;;;;20.15;2.70;;;;;;;;;;4883485;28;20175;-65
2020/12/19 13:44:03;;;;;;;23.23;4.57;;;;;;;;;;4892897;28;20199;-65
2020/12/19 13:46:29;;;;;;;24.95;4.30;;;;;;;;;;4892884;28;20515;-65
2020/12/19 13:48:54;;;;;;;23.23;4.22;;;;;;;;;;4892449;28;20156;-65
2020/12/19 13:51:26;;;;;;;25.95;5.28;;;;;;;;;;4893450;28;20136;-66
2020/12/19 13:53:52;;;;;;;21.63;4.50;;;;;;;;;;4893723;28;20247;-67
2020/12/19 13:56:20;;;;;;;19.80;3.40;;;;;;;;;;4892518;28;20198;-66
2020/12/19 13:58:45;;;;;;;25.13;5.35;;;;;;;;;;4891091;28;20176;-66
2020/12/19 14:01:11;;;;;;;23.92;3.40;;;;;;;;;;4873335;28;20215;-66
2020/12/19 14:03:36;;;;;;;18.60;3.42;;;;;;;;;;4880905;28;20328;-66
2020/12/19 14:06:02;;;;;;;24.08;4.07;;;;;;;;;;4882982;28;20302;-65
2020/12/19 14:08:28;;;;;;;27.65;4.97;;;;;;;;;;4881245;28;20353;-66
2020/12/19 14:10:54;;;;;;;23.55;3.83;;;;;;;;;;4882399;28;20183;-66
2020/12/19 14:13:20;;;;;;;17.90;3.85;;;;;;;;;;4877322;28;20603;-66
2020/12/19 14:15:46;;;;;;;23.58;2.92;;;;;;;;;;4883080;28;20595;-66
2020/12/19 14:18:11;;;;;;;19.08;3.85;;;;;;;;;;4892366;28;20163;-65
2020/12/19 14:20:38;;;;;;;26.33;4.65;;;;;;;;;;4882240;28;20178;-65
2020/12/19 14:23:04;;;;;;;27.23;3.22;;;;;;;;;;4884230;28;20167;-66
2020/12/19 14:25:32;;;;;;;26.92;3.88;;;;;;;;;;4882686;28;20218;-66
2020/12/19 14:27:58;;;;;;;28.10;5.93;;;;;;;;;;4883117;28;20178;-66